Time;durP1;ratioP1;P1;durP2;ratioP2;P2;SDS_P1;SDS_P2;PMS_P1;PMS_P2;Temp;Humidity;BMP_temperature;BMP_pressure;BME280_temperature;BME280_humidity;BME280_pressure;Samples;Min_cycle;Max_cycle;Signal;HPM_P1;HPM_P2
2023/01/15 00:01:30;;;;;;;3.80;1.70;;;;;;;;;;5059420;28;20032;-40
2023/01/15 00:03:57;;;;;;;4.30;1.60;;;;;;;;;;5049237;28;20024;-40
2023/01/15 00:06:24;;;;;;;4.30;2.28;;;;;;;;;;5060358;28;20144;-40
2023/01/15 00:08:51;;;;;;;5.95;2.08;;;;;;;;;;5065551;28;20074;-43
2023/01/15 00:11:17;;;;;;;6.38;2.25;;;;;;;;;;5060045;28;20032;-40
2023/01/15 00:13:44;;;;;;;3.92;1.70;;;;;;;;;;5061156;28;20028;-40
2023/01/15 00:16:11;;;;;;;3.78;1.85;;;;;;;;;;5051550;28;20056;-41
2023/01/15 00:18:37;;;;;;;3.75;2.13;;;;;;;;;;5049992;28;20033;-41
2023/01/15 00:21:05;;;;;;;6.45;2.95;;;;;;;;;;5049848;28;20495;-43
2023/01/15 00:29:02;;;;;;;3.90;2.00;;;;;;;;;;5051405;28;20087;-40
2023/01/15 00:31:29;;;;;;;6.18;2.33;;;;;;;;;;5049547;28;20040;-40
2023/01/15 00:33:55;;;;;;;5.75;2.42;;;;;;;;;;5050992;28;20025;-41
2023/01/15 00:36:22;;;;;;;6.75;2.15;;;;;;;;;;5049137;28;20029;-40
2023/01/15 00:38:48;;;;;;;5.63;1.83;;;;;;;;;;5053124;28;20091;-40
2023/01/15 00:41:13;;;;;;;3.65;2.35;;;;;;;;;;5046821;28;20025;-41
2023/01/15 00:43:39;;;;;;;4.82;2.10;;;;;;;;;;5045496;28;20030;-42
2023/01/15 00:46:07;;;;;;;6.63;2.33;;;;;;;;;;5050197;28;20037;-42
2023/01/15 00:48:33;;;;;;;4.43;2.00;;;;;;;;;;5051752;28;20025;-42
2023/01/15 00:50:59;;;;;;;4.18;1.95;;;;;;;;;;5049360;28;20381;-41
2023/01/15 00:53:25;;;;;;;5.00;1.85;;;;;;;;;;5049556;28;20017;-40
2023/01/15 00:55:51;;;;;;;5.57;2.25;;;;;;;;;;5050138;28;20470;-41
2023/01/15 00:58:17;;;;;;;5.40;2.70;;;;;;;;;;5046956;28;20025;-40
2023/01/15 01:00:43;;;;;;;3.92;2.17;;;;;;;;;;5048615;28;20101;-41
2023/01/15 01:03:09;;;;;;;4.82;2.22;;;;;;;;;;5049724;28;20454;-42
2023/01/15 01:05:36;;;;;;;5.28;3.30;;;;;;;;;;5047965;28;20020;-40
2023/01/15 01:08:01;;;;;;;3.75;2.08;;;;;;;;;;5051584;28;20434;-40
2023/01/15 01:10:28;;;;;;;3.17;1.98;;;;;;;;;;5049315;28;20108;-40
2023/01/15 01:12:54;;;;;;;5.18;2.10;;;;;;;;;;5053702;28;20385;-41
2023/01/15 01:15:21;;;;;;;5.15;3.03;;;;;;;;;;5048181;28;20052;-42
2023/01/15 01:17:47;;;;;;;4.43;2.60;;;;;;;;;;5046794;28;20124;-40
2023/01/15 01:20:14;;;;;;;4.68;2.08;;;;;;;;;;5051331;28;20055;-41
2023/01/15 01:22:40;;;;;;;4.07;2.60;;;;;;;;;;5050885;28;20021;-40
2023/01/15 01:25:07;;;;;;;6.75;2.28;;;;;;;;;;5052271;28;20032;-43
2023/01/15 01:27:33;;;;;;;6.13;1.88;;;;;;;;;;5050104;28;20040;-40
2023/01/15 01:29:59;;;;;;;8.23;2.08;;;;;;;;;;5051210;28;20029;-40
2023/01/15 01:32:25;;;;;;;5.40;2.70;;;;;;;;;;5048306;28;20117;-40
2023/01/15 01:34:51;;;;;;;3.13;1.80;;;;;;;;;;5045902;28;20033;-41
2023/01/15 01:37:17;;;;;;;5.00;2.38;;;;;;;;;;5046752;28;20514;-41
2023/01/15 01:39:43;;;;;;;6.45;2.03;;;;;;;;;;5051795;28;20029;-41
2023/01/15 01:42:12;;;;;;;3.38;2.17;;;;;;;;;;5053169;28;20031;-41
2023/01/15 01:44:38;;;;;;;4.57;2.28;;;;;;;;;;5049026;28;20021;-41
2023/01/15 01:47:17;;;;;;;5.10;2.08;;;;;;;;;;5048895;28;20048;-42
2023/01/15 01:49:44;;;;;;;5.47;2.50;;;;;;;;;;5053786;28;20133;-41
2023/01/15 01:52:17;;;;;;;4.60;2.22;;;;;;;;;;5048562;28;20474;-41
2023/01/15 01:54:45;;;;;;;4.72;2.15;;;;;;;;;;5052762;28;20060;-40
2023/01/15 01:57:11;;;;;;;5.55;1.77;;;;;;;;;;5052031;28;20024;-40
2023/01/15 01:59:37;;;;;;;4.82;3.05;;;;;;;;;;5052867;28;20059;-40
2023/01/15 02:02:03;;;;;;;5.07;2.67;;;;;;;;;;5050827;28;20036;-41
2023/01/15 02:04:30;;;;;;;3.15;2.30;;;;;;;;;;5050629;28;20086;-40
2023/01/15 02:06:57;;;;;;;2.63;1.80;;;;;;;;;;5062268;28;20032;-40
2023/01/15 02:09:23;;;;;;;3.58;2.20;;;;;;;;;;5061870;28;20120;-40
2023/01/15 02:11:54;;;;;;;3.65;1.67;;;;;;;;;;5055711;28;20477;-40
2023/01/15 02:14:29;;;;;;;3.25;1.63;;;;;;;;;;5061158;28;20025;-40
2023/01/15 02:17:05;;;;;;;3.20;1.83;;;;;;;;;;5063489;28;20028;-40
2023/01/15 02:19:37;;;;;;;4.50;2.42;;;;;;;;;;5046301;28;20457;-40
2023/01/15 02:22:10;;;;;;;4.07;2.03;;;;;;;;;;5065721;28;20024;-40
2023/01/15 02:24:54;;;;;;;2.72;1.88;;;;;;;;;;5063927;28;20079;-41
2023/01/15 02:27:23;;;;;;;4.47;2.22;;;;;;;;;;5055406;28;20473;-41
2023/01/15 02:29:54;;;;;;;3.47;2.00;;;;;;;;;;5059398;28;20052;-41
2023/01/15 02:32:28;;;;;;;5.63;2.22;;;;;;;;;;5065363;28;20505;-40
2023/01/15 02:34:56;;;;;;;3.85;2.03;;;;;;;;;;5066773;28;20363;-41
2023/01/15 02:37:25;;;;;;;4.55;1.88;;;;;;;;;;5063115;28;20044;-40
2023/01/15 02:39:52;;;;;;;3.47;1.50;;;;;;;;;;5063601;28;20025;-40
2023/01/15 02:42:19;;;;;;;4.15;2.20;;;;;;;;;;5058808;28;20029;-40
2023/01/15 02:44:46;;;;;;;2.72;1.60;;;;;;;;;;5061572;28;20033;-42
2023/01/15 02:47:13;;;;;;;3.50;1.92;;;;;;;;;;5063717;28;20555;-40
2023/01/15 02:49:40;;;;;;;6.88;1.85;;;;;;;;;;5060350;28;20108;-40
2023/01/15 02:52:08;;;;;;;3.72;1.85;;;;;;;;;;5054932;28;20025;-44
2023/01/15 02:54:41;;;;;;;4.78;1.60;;;;;;;;;;5063206;28;20111;-41
2023/01/15 02:57:08;;;;;;;3.20;1.90;;;;;;;;;;5061404;28;20052;-43
2023/01/15 02:59:37;;;;;;;2.67;1.65;;;;;;;;;;5062135;28;20040;-41
2023/01/15 03:02:05;;;;;;;3.72;2.00;;;;;;;;;;5065773;28;20044;-40
2023/01/15 03:04:34;;;;;;;3.00;1.67;;;;;;;;;;5046122;28;20381;-41
2023/01/15 03:07:11;;;;;;;3.88;1.60;;;;;;;;;;5061361;28;20037;-41
2023/01/15 03:09:37;;;;;;;2.97;2.08;;;;;;;;;;5047947;28;20029;-41
2023/01/15 03:12:14;;;;;;;2.90;1.58;;;;;;;;;;5056711;28;20028;-40
2023/01/15 03:14:58;;;;;;;2.80;1.55;;;;;;;;;;5063126;28;20127;-40
2023/01/15 03:17:30;;;;;;;3.30;1.55;;;;;;;;;;5056564;28;20846;-40
2023/01/15 03:19:58;;;;;;;2.42;1.35;;;;;;;;;;5058132;28;20025;-40
2023/01/15 03:22:31;;;;;;;3.05;1.25;;;;;;;;;;5068577;28;20033;-40
2023/01/15 03:25:03;;;;;;;2.33;1.80;;;;;;;;;;5056636;28;20133;-41
2023/01/15 03:27:29;;;;;;;2.10;1.58;;;;;;;;;;5063262;28;20116;-40
2023/01/15 03:29:59;;;;;;;5.47;2.15;;;;;;;;;;5057681;28;20021;-40
2023/01/15 03:32:25;;;;;;;2.35;1.38;;;;;;;;;;5061310;28;20063;-40
2023/01/15 03:34:53;;;;;;;2.47;1.30;;;;;;;;;;5063112;28;20068;-40
2023/01/15 03:37:20;;;;;;;2.03;1.30;;;;;;;;;;5066251;28;20125;-40
2023/01/15 03:39:47;;;;;;;3.75;1.35;;;;;;;;;;5055303;28;20134;-40
2023/01/15 03:42:25;;;;;;;3.17;1.60;;;;;;;;;;5062468;28;20035;-40
2023/01/15 03:45:02;;;;;;;2.40;1.20;;;;;;;;;;5060507;28;20024;-40
2023/01/15 03:47:28;;;;;;;2.25;1.58;;;;;;;;;;5048082;28;20047;-40
2023/01/15 03:49:54;;;;;;;2.80;2.08;;;;;;;;;;5058481;28;20112;-41
2023/01/15 03:52:24;;;;;;;2.70;1.50;;;;;;;;;;5056322;28;20036;-40
2023/01/15 03:55:07;;;;;;;2.65;1.60;;;;;;;;;;5062976;28;20021;-40
2023/01/15 03:57:42;;;;;;;2.83;1.40;;;;;;;;;;5060157;28;20029;-40
2023/01/15 04:00:15;;;;;;;3.35;1.33;;;;;;;;;;5065165;28;20059;-42
2023/01/15 04:02:41;;;;;;;4.07;2.25;;;;;;;;;;5060666;28;20017;-40
2023/01/15 04:05:07;;;;;;;2.00;1.30;;;;;;;;;;5059095;28;20025;-42
2023/01/15 04:07:34;;;;;;;1.95;1.30;;;;;;;;;;5060797;28;20064;-40
2023/01/15 04:10:00;;;;;;;1.85;1.20;;;;;;;;;;5061173;28;20049;-40
2023/01/15 04:12:26;;;;;;;4.25;1.33;;;;;;;;;;5061497;28;20133;-42
2023/01/15 04:14:53;;;;;;;2.25;1.38;;;;;;;;;;5060550;28;20049;-40
2023/01/15 04:17:18;;;;;;;2.63;1.58;;;;;;;;;;5058691;28;20174;-41
2023/01/15 04:19:44;;;;;;;2.25;1.25;;;;;;;;;;5056050;28;20100;-40
2023/01/15 04:22:11;;;;;;;1.35;0.80;;;;;;;;;;5054903;28;20028;-40
2023/01/15 04:24:37;;;;;;;2.35;1.20;;;;;;;;;;5058922;28;20032;-40
2023/01/15 04:27:03;;;;;;;1.52;1.10;;;;;;;;;;5060022;28;20025;-41
2023/01/15 04:29:29;;;;;;;1.73;1.10;;;;;;;;;;5052643;28;20037;-40
2023/01/15 04:31:56;;;;;;;2.67;1.30;;;;;;;;;;5056058;28;20040;-40
2023/01/15 04:34:24;;;;;;;2.00;1.10;;;;;;;;;;5062757;28;20031;-40
2023/01/15 04:36:50;;;;;;;1.85;1.00;;;;;;;;;;5064316;28;20032;-40
2023/01/15 04:39:16;;;;;;;2.67;1.27;;;;;;;;;;5058709;28;20021;-40
2023/01/15 04:44:28;;;;;;;2.03;1.10;;;;;;;;;;5060054;28;20032;-41
2023/01/15 04:46:56;;;;;;;2.20;1.05;;;;;;;;;;5053675;28;20048;-41
2023/01/15 04:49:22;;;;;;;2.30;1.33;;;;;;;;;;5060542;28;20041;-40
2023/01/15 04:51:48;;;;;;;2.58;1.30;;;;;;;;;;5062531;28;20024;-40
2023/01/15 04:54:15;;;;;;;5.75;1.10;;;;;;;;;;5058329;28;20139;-40
2023/01/15 04:56:46;;;;;;;2.15;1.02;;;;;;;;;;5053480;28;20029;-40
2023/01/15 04:59:12;;;;;;;1.70;1.02;;;;;;;;;;5058433;28;20488;-40
2023/01/15 05:01:39;;;;;;;1.52;0.90;;;;;;;;;;5065612;28;20036;-40
2023/01/15 05:04:05;;;;;;;3.95;1.00;;;;;;;;;;5061209;28;20025;-42
2023/01/15 05:06:31;;;;;;;1.73;0.90;;;;;;;;;;5052727;28;20040;-40
2023/01/15 05:08:57;;;;;;;2.35;1.42;;;;;;;;;;5059684;28;20043;-40
2023/01/15 05:11:23;;;;;;;1.58;0.90;;;;;;;;;;5061999;28;20028;-40
2023/01/15 05:13:49;;;;;;;1.63;1.13;;;;;;;;;;5062103;28;20055;-41
2023/01/15 05:16:20;;;;;;;1.02;0.63;;;;;;;;;;5051968;28;20076;-41
2023/01/15 05:18:46;;;;;;;1.58;1.20;;;;;;;;;;5059592;28;20044;-40
2023/01/15 05:21:13;;;;;;;1.48;0.77;;;;;;;;;;5058801;28;20025;-40
2023/01/15 05:23:39;;;;;;;1.02;0.80;;;;;;;;;;5061834;28;20385;-40
2023/01/15 05:26:05;;;;;;;1.95;0.90;;;;;;;;;;5069375;28;20112;-42
2023/01/15 05:28:31;;;;;;;1.55;0.90;;;;;;;;;;5063169;28;20047;-40
2023/01/15 05:30:57;;;;;;;2.35;1.23;;;;;;;;;;5063779;28;20040;-40
2023/01/15 05:33:23;;;;;;;1.15;0.90;;;;;;;;;;5064848;28;20020;-40
2023/01/15 05:35:49;;;;;;;1.40;0.95;;;;;;;;;;5064565;28;20017;-40
2023/01/15 05:38:15;;;;;;;1.23;0.75;;;;;;;;;;5064753;28;20378;-41
2023/01/15 05:40:41;;;;;;;1.88;0.90;;;;;;;;;;5063324;28;20029;-40
2023/01/15 05:43:07;;;;;;;1.63;0.98;;;;;;;;;;5063744;28;20029;-42
2023/01/15 05:45:36;;;;;;;1.30;1.20;;;;;;;;;;5057145;28;20363;-41
2023/01/15 05:48:02;;;;;;;1.23;0.70;;;;;;;;;;5068165;28;20036;-40
2023/01/15 05:50:28;;;;;;;1.80;1.20;;;;;;;;;;5061731;28;20028;-41
2023/01/15 05:52:54;;;;;;;1.58;1.00;;;;;;;;;;5058482;28;20025;-40
2023/01/15 05:55:20;;;;;;;1.35;0.75;;;;;;;;;;5056302;28;20071;-40
2023/01/15 05:57:48;;;;;;;1.42;0.65;;;;;;;;;;5065568;28;20079;-40
2023/01/15 06:00:14;;;;;;;1.08;0.70;;;;;;;;;;5064709;28;20044;-40
2023/01/15 06:02:40;;;;;;;1.90;0.80;;;;;;;;;;5064648;28;20036;-41
2023/01/15 06:05:06;;;;;;;1.17;0.98;;;;;;;;;;5060769;28;20029;-43
2023/01/15 06:07:32;;;;;;;1.08;0.60;;;;;;;;;;5065261;28;20036;-41
2023/01/15 06:09:58;;;;;;;4.93;0.98;;;;;;;;;;5057422;28;20033;-41
2023/01/15 06:12:24;;;;;;;0.80;0.50;;;;;;;;;;5063913;28;20040;-40
2023/01/15 06:14:50;;;;;;;1.23;0.80;;;;;;;;;;5057474;28;20112;-41
2023/01/15 06:17:16;;;;;;;1.60;0.80;;;;;;;;;;5067163;28;20124;-40
2023/01/15 06:19:42;;;;;;;1.45;0.77;;;;;;;;;;5065268;28;20024;-40
2023/01/15 06:22:08;;;;;;;1.05;0.77;;;;;;;;;;5064138;28;20096;-43
2023/01/15 06:24:34;;;;;;;2.03;1.00;;;;;;;;;;5058025;28;20074;-40
2023/01/15 06:27:00;;;;;;;1.15;0.68;;;;;;;;;;5059069;28;20104;-40
2023/01/15 06:29:26;;;;;;;1.58;0.88;;;;;;;;;;5064218;28;20664;-40
2023/01/15 06:31:52;;;;;;;1.98;0.88;;;;;;;;;;5065188;28;20029;-40
2023/01/15 06:34:18;;;;;;;1.00;0.80;;;;;;;;;;5057440;28;20071;-40
2023/01/15 06:36:44;;;;;;;0.73;0.68;;;;;;;;;;5061259;28;20506;-41
2023/01/15 06:39:10;;;;;;;1.67;0.73;;;;;;;;;;5059918;28;20028;-40
2023/01/15 06:47:21;;;;;;;4.50;0.80;;;;;;;;;;5056790;28;20404;-41
2023/01/15 06:49:57;;;;;;;4.35;0.50;;;;;;;;;;5070013;28;20036;-40
2023/01/15 06:52:24;;;;;;;0.30;0.30;;;;;;;;;;5061283;28;20583;-40
2023/01/15 06:54:50;;;;;;;0.55;0.35;;;;;;;;;;5066183;28;20029;-40
2023/01/15 06:57:17;;;;;;;0.63;0.20;;;;;;;;;;5067722;28;20035;-40
2023/01/15 06:59:43;;;;;;;1.20;0.40;;;;;;;;;;5058508;28;20389;-40
2023/01/15 07:02:10;;;;;;;0.35;0.25;;;;;;;;;;5063692;28;20028;-41
2023/01/15 07:04:36;;;;;;;0.85;0.30;;;;;;;;;;5054111;28;20021;-40
2023/01/15 07:07:02;;;;;;;2.67;0.50;;;;;;;;;;5043854;28;20033;-40
2023/01/15 07:09:28;;;;;;;2.03;0.40;;;;;;;;;;5060107;28;20028;-40
2023/01/15 07:11:54;;;;;;;3.20;0.43;;;;;;;;;;5068328;28;20025;-40
2023/01/15 07:14:22;;;;;;;0.80;0.50;;;;;;;;;;5057877;28;20034;-40
2023/01/15 07:16:48;;;;;;;0.68;0.40;;;;;;;;;;5055775;28;20053;-39
2023/01/15 07:19:14;;;;;;;1.85;0.30;;;;;;;;;;5061997;28;20143;-40
2023/01/15 07:21:40;;;;;;;1.80;0.75;;;;;;;;;;5059911;28;20029;-41
2023/01/15 07:24:06;;;;;;;1.05;0.40;;;;;;;;;;5061506;28;20473;-42
2023/01/15 07:26:33;;;;;;;0.85;0.35;;;;;;;;;;5058800;28;20071;-40
2023/01/15 07:28:59;;;;;;;0.93;0.40;;;;;;;;;;5058131;28;20442;-41
2023/01/15 07:31:25;;;;;;;1.38;0.80;;;;;;;;;;5063179;28;20059;-40
2023/01/15 07:33:50;;;;;;;1.58;0.43;;;;;;;;;;5059441;28;20025;-41
2023/01/15 07:36:16;;;;;;;16.02;0.93;;;;;;;;;;5061139;28;20028;-40
2023/01/15 07:38:42;;;;;;;2.20;0.63;;;;;;;;;;5060659;28;20028;-40
2023/01/15 07:52:07;;;;;;;2.75;0.70;;;;;;;;;;5055442;28;20040;-43
2023/01/15 07:54:33;;;;;;;2.30;0.50;;;;;;;;;;5059746;28;20385;-40
2023/01/15 07:56:59;;;;;;;2.20;0.73;;;;;;;;;;5062185;28;20028;-39
2023/01/15 07:59:25;;;;;;;1.73;0.73;;;;;;;;;;5062367;28;20028;-40
2023/01/15 08:01:51;;;;;;;5.00;0.60;;;;;;;;;;5063974;28;20032;-39
2023/01/15 08:04:17;;;;;;;2.47;0.52;;;;;;;;;;5060249;28;20031;-40
2023/01/15 08:06:43;;;;;;;1.77;0.40;;;;;;;;;;5043402;28;20131;-41
2023/01/15 08:09:09;;;;;;;6.00;1.10;;;;;;;;;;5053247;28;20115;-43
2023/01/15 08:17:04;;;;;;;2.63;0.47;;;;;;;;;;5065896;28;20109;-40
2023/01/15 08:19:30;;;;;;;1.92;0.30;;;;;;;;;;5060211;28;20769;-41
2023/01/15 08:21:56;;;;;;;3.40;0.70;;;;;;;;;;5061807;28;20119;-40
2023/01/15 08:24:23;;;;;;;3.35;0.40;;;;;;;;;;5056169;28;20085;-40
2023/01/15 08:26:49;;;;;;;2.28;0.60;;;;;;;;;;5052786;28;20055;-41
2023/01/15 08:29:15;;;;;;;1.92;0.40;;;;;;;;;;5057325;28;20021;-40
2023/01/15 08:31:41;;;;;;;2.67;0.60;;;;;;;;;;5047109;28;20041;-44
2023/01/15 08:34:07;;;;;;;2.20;0.45;;;;;;;;;;5057164;28;20435;-45
2023/01/15 08:36:33;;;;;;;3.08;0.32;;;;;;;;;;5057445;28;20049;-39
2023/01/15 08:38:59;;;;;;;2.22;0.57;;;;;;;;;;5058519;28;20020;-40
2023/01/15 08:41:25;;;;;;;3.63;0.60;;;;;;;;;;5052394;28;20041;-40
2023/01/15 08:43:51;;;;;;;1.17;0.43;;;;;;;;;;5055544;28;20516;-43
2023/01/15 08:46:17;;;;;;;3.00;0.82;;;;;;;;;;5058551;28;20048;-39
2023/01/15 08:48:43;;;;;;;1.33;0.30;;;;;;;;;;5059464;28;20047;-42
2023/01/15 08:51:10;;;;;;;3.30;0.85;;;;;;;;;;5059633;28;20109;-44
2023/01/15 08:53:37;;;;;;;1.95;0.40;;;;;;;;;;5023400;28;20041;-42
2023/01/15 08:56:03;;;;;;;2.00;0.68;;;;;;;;;;5010667;28;20038;-40
2023/01/15 08:58:30;;;;;;;6.97;1.20;;;;;;;;;;5011308;28;20832;-40
2023/01/15 09:00:56;;;;;;;1.48;0.75;;;;;;;;;;5011019;28;20141;-42
2023/01/15 09:03:22;;;;;;;4.70;0.30;;;;;;;;;;5009706;28;20042;-41
2023/01/15 09:05:48;;;;;;;1.00;0.68;;;;;;;;;;5017882;28;21494;-43
2023/01/15 09:08:14;;;;;;;1.38;0.35;;;;;;;;;;5018277;28;20037;-40
2023/01/15 09:10:40;;;;;;;2.38;0.40;;;;;;;;;;5016436;28;20390;-41
2023/01/15 09:13:07;;;;;;;5.05;0.60;;;;;;;;;;5018130;28;20036;-44
2023/01/15 09:15:33;;;;;;;1.45;0.70;;;;;;;;;;5013020;28;20086;-41
2023/01/15 09:17:59;;;;;;;2.47;0.65;;;;;;;;;;5006975;28;20503;-44
2023/01/15 09:20:25;;;;;;;3.15;0.40;;;;;;;;;;5002705;28;20073;-42
2023/01/15 09:22:51;;;;;;;1.52;0.40;;;;;;;;;;5006332;28;20076;-40
2023/01/15 09:25:18;;;;;;;1.45;0.63;;;;;;;;;;5023058;28;20046;-40
2023/01/15 09:27:44;;;;;;;1.88;0.45;;;;;;;;;;5029169;28;20124;-43
2023/01/15 09:30:14;;;;;;;4.43;0.43;;;;;;;;;;5027827;28;20025;-41
2023/01/15 09:32:40;;;;;;;1.13;0.57;;;;;;;;;;5029202;28;20038;-40
2023/01/15 09:35:06;;;;;;;3.58;0.60;;;;;;;;;;5027905;28;20143;-42
2023/01/15 09:37:32;;;;;;;1.15;0.50;;;;;;;;;;5029432;28;20045;-42
2023/01/15 09:39:58;;;;;;;1.70;0.50;;;;;;;;;;5023182;28;20105;-40
2023/01/15 09:42:24;;;;;;;6.75;1.00;;;;;;;;;;5028803;28;20053;-40
2023/01/15 09:44:56;;;;;;;2.97;0.70;;;;;;;;;;5028225;28;20028;-42
2023/01/15 09:47:36;;;;;;;6.20;1.15;;;;;;;;;;5029567;28;20403;-40
2023/01/15 09:50:05;;;;;;;0.93;0.47;;;;;;;;;;5025967;28;20144;-42
2023/01/15 09:52:31;;;;;;;5.70;0.75;;;;;;;;;;5027968;28;20091;-40
2023/01/15 09:55:14;;;;;;;3.08;0.55;;;;;;;;;;5028223;28;20469;-41
2023/01/15 09:57:41;;;;;;;2.45;0.60;;;;;;;;;;5037722;28;20408;-43
2023/01/15 10:00:12;;;;;;;2.85;0.60;;;;;;;;;;5026880;28;20475;-44
2023/01/15 10:02:44;;;;;;;2.65;0.45;;;;;;;;;;5029305;28;20069;-42
2023/01/15 10:05:10;;;;;;;1.80;0.88;;;;;;;;;;5026910;28;20025;-41
2023/01/15 10:07:40;;;;;;;3.08;0.65;;;;;;;;;;5029448;28;20509;-42
2023/01/15 10:10:18;;;;;;;1.83;0.50;;;;;;;;;;5026298;28;20379;-45
2023/01/15 10:12:46;;;;;;;2.55;0.50;;;;;;;;;;5032745;28;20033;-42
2023/01/15 10:15:14;;;;;;;6.80;0.80;;;;;;;;;;5039272;28;20478;-42
2023/01/15 10:17:52;;;;;;;6.65;0.77;;;;;;;;;;5052967;28;20036;-43
2023/01/15 10:20:24;;;;;;;5.00;0.60;;;;;;;;;;5050138;28;20017;-42
2023/01/15 10:23:01;;;;;;;3.72;0.75;;;;;;;;;;5052679;28;20239;-42
2023/01/15 10:25:30;;;;;;;8.63;0.90;;;;;;;;;;5029958;28;20502;-40
2023/01/15 10:27:57;;;;;;;2.38;0.35;;;;;;;;;;5050111;28;20405;-41
2023/01/15 10:30:26;;;;;;;2.08;0.68;;;;;;;;;;5044675;28;20026;-41
2023/01/15 10:32:55;;;;;;;3.17;0.60;;;;;;;;;;5051968;28;20530;-41
2023/01/15 10:35:21;;;;;;;2.03;0.60;;;;;;;;;;5050020;28;20035;-42
2023/01/15 10:37:50;;;;;;;3.50;0.95;;;;;;;;;;5051871;28;20417;-45
2023/01/15 10:40:32;;;;;;;3.95;0.50;;;;;;;;;;5049632;28;20025;-42
2023/01/15 10:43:01;;;;;;;5.05;0.68;;;;;;;;;;5051157;28;20485;-41
2023/01/15 10:45:50;;;;;;;5.68;0.90;;;;;;;;;;5051650;28;20059;-40
2023/01/15 10:48:18;;;;;;;14.82;1.60;;;;;;;;;;5044644;28;20067;-41
2023/01/15 10:50:45;;;;;;;3.92;0.63;;;;;;;;;;5051394;28;20029;-41
2023/01/15 10:53:22;;;;;;;3.88;1.02;;;;;;;;;;5065334;28;20036;-41
2023/01/15 10:55:50;;;;;;;5.35;1.05;;;;;;;;;;5061569;28;20032;-41
2023/01/15 10:58:25;;;;;;;7.57;0.68;;;;;;;;;;5061953;28;20036;-40
2023/01/15 11:00:54;;;;;;;5.22;1.17;;;;;;;;;;5055104;28;20031;-42
2023/01/15 11:03:22;;;;;;;1.45;0.70;;;;;;;;;;5061605;28;20051;-40
2023/01/15 11:05:48;;;;;;;3.45;0.50;;;;;;;;;;5056049;28;20017;-42
2023/01/15 11:08:21;;;;;;;3.92;1.27;;;;;;;;;;5050372;28;20037;-41
2023/01/15 11:10:47;;;;;;;3.88;1.02;;;;;;;;;;5050199;28;20021;-41
2023/01/15 11:21:40;;;;;;;2.72;0.65;;;;;;;;;;5048634;28;20071;-40
2023/01/15 11:24:13;;;;;;;5.55;0.98;;;;;;;;;;5052244;28;20090;-43
2023/01/15 11:26:39;;;;;;;4.47;0.85;;;;;;;;;;5050712;28;20041;-42
2023/01/15 11:29:13;;;;;;;5.68;1.05;;;;;;;;;;5050046;28;20407;-44
2023/01/15 11:31:40;;;;;;;2.97;0.60;;;;;;;;;;5049733;28;20500;-41
2023/01/15 11:34:15;;;;;;;3.88;0.90;;;;;;;;;;5049839;28;20041;-43
2023/01/15 11:36:41;;;;;;;1.63;0.70;;;;;;;;;;5051039;28;20060;-41
2023/01/15 11:39:21;;;;;;;3.05;0.88;;;;;;;;;;5050008;28;20045;-42
2023/01/15 11:53:01;;;;;;;3.58;1.38;;;;;;;;;;5050367;28;20071;-42
2023/01/15 11:55:27;;;;;;;5.80;1.23;;;;;;;;;;5049323;28;20037;-44
2023/01/15 11:57:55;;;;;;;4.90;1.20;;;;;;;;;;5050906;28;20045;-43
2023/01/15 12:00:32;;;;;;;5.45;1.10;;;;;;;;;;5050506;28;20108;-41
2023/01/15 12:03:05;;;;;;;3.63;1.15;;;;;;;;;;5048860;28;20017;-41
2023/01/15 12:05:33;;;;;;;3.10;1.35;;;;;;;;;;5049992;28;20098;-42
2023/01/15 12:08:02;;;;;;;7.15;0.88;;;;;;;;;;5063743;28;20078;-43
2023/01/15 12:13:20;;;;;;;6.65;1.50;;;;;;;;;;5053599;28;20052;-42
2023/01/15 12:15:50;;;;;;;6.18;1.25;;;;;;;;;;5052623;28;20498;-42
2023/01/15 12:18:16;;;;;;;3.97;0.80;;;;;;;;;;5048949;28;20033;-43
2023/01/15 12:20:48;;;;;;;3.53;1.33;;;;;;;;;;5047510;28;20101;-42
2023/01/15 12:23:29;;;;;;;4.43;1.10;;;;;;;;;;5051156;28;20036;-42
2023/01/15 12:26:03;;;;;;;3.13;1.03;;;;;;;;;;5048087;28;20037;-42
2023/01/15 12:28:33;;;;;;;2.55;0.90;;;;;;;;;;5046921;28;20286;-42
2023/01/15 12:31:02;;;;;;;2.45;0.80;;;;;;;;;;5051548;28;20408;-41
2023/01/15 12:33:43;;;;;;;8.63;1.65;;;;;;;;;;5050852;28;20184;-41
2023/01/15 12:36:12;;;;;;;2.70;1.43;;;;;;;;;;5064829;28;20079;-44
2023/01/15 12:38:53;;;;;;;3.25;0.82;;;;;;;;;;5059259;28;20029;-42
2023/01/15 12:41:22;;;;;;;2.72;1.60;;;;;;;;;;5060066;28;20075;-41
2023/01/15 12:46:38;;;;;;;2.40;0.93;;;;;;;;;;5059785;28;20562;-42
2023/01/15 12:49:09;;;;;;;2.45;0.77;;;;;;;;;;5059047;28;20032;-43
2023/01/15 12:51:59;;;;;;;6.25;1.58;;;;;;;;;;5041790;28;20386;-42
2023/01/15 12:54:29;;;;;;;2.33;0.63;;;;;;;;;;5042016;28;20044;-41
2023/01/15 12:57:02;;;;;;;1.70;0.90;;;;;;;;;;5051072;28;20158;-42
2023/01/15 12:59:31;;;;;;;5.25;2.05;;;;;;;;;;5057286;28;20024;-41
2023/01/15 13:02:16;;;;;;;1.83;0.68;;;;;;;;;;5056708;28;20033;-41
2023/01/15 13:04:50;;;;;;;3.30;1.25;;;;;;;;;;5055216;28;20382;-41
2023/01/15 13:07:35;;;;;;;1.67;0.80;;;;;;;;;;5042285;28;20409;-41
2023/01/15 13:10:10;;;;;;;2.03;1.20;;;;;;;;;;5062133;28;20028;-41
2023/01/15 13:12:36;;;;;;;2.05;0.63;;;;;;;;;;5054442;28;20070;-42
2023/01/15 13:15:03;;;;;;;2.20;0.80;;;;;;;;;;5061041;28;20048;-41
2023/01/15 13:17:37;;;;;;;1.30;0.90;;;;;;;;;;5060853;28;20809;-41
2023/01/15 13:20:03;;;;;;;2.35;0.65;;;;;;;;;;5059478;28;20037;-41
2023/01/15 13:22:31;;;;;;;2.33;0.60;;;;;;;;;;5054910;28;20029;-41
2023/01/15 13:25:20;;;;;;;2.30;0.60;;;;;;;;;;5058875;28;20033;-41
2023/01/15 13:27:46;;;;;;;2.58;0.93;;;;;;;;;;5040442;28;20083;-41
2023/01/15 13:30:19;;;;;;;2.53;0.70;;;;;;;;;;5057802;28;20052;-40
2023/01/15 13:32:47;;;;;;;1.38;0.70;;;;;;;;;;5057037;28;20028;-41
2023/01/15 13:35:28;;;;;;;2.42;0.60;;;;;;;;;;5060682;28;20071;-41
2023/01/15 13:37:55;;;;;;;0.88;0.63;;;;;;;;;;5065082;28;20499;-40
2023/01/15 13:40:21;;;;;;;2.70;0.50;;;;;;;;;;5056850;28;20105;-40
2023/01/15 13:42:49;;;;;;;1.10;0.45;;;;;;;;;;5054865;28;20437;-41
2023/01/15 13:45:15;;;;;;;2.35;1.02;;;;;;;;;;5054923;28;20033;-41
2023/01/15 13:47:44;;;;;;;1.60;0.57;;;;;;;;;;5066065;28;20442;-41
2023/01/15 13:50:22;;;;;;;2.15;0.88;;;;;;;;;;5058672;28;20033;-41
2023/01/15 13:52:48;;;;;;;2.00;0.75;;;;;;;;;;5057586;28;20446;-39
2023/01/15 13:55:25;;;;;;;2.05;0.75;;;;;;;;;;5064763;28;20502;-41
2023/01/15 13:57:51;;;;;;;2.58;0.80;;;;;;;;;;5064996;28;20036;-40
2023/01/15 14:00:38;;;;;;;9.32;1.30;;;;;;;;;;5055714;28;20081;-41
2023/01/15 14:03:23;;;;;;;1.92;0.98;;;;;;;;;;5058812;28;20060;-40
2023/01/15 14:05:56;;;;;;;3.92;0.90;;;;;;;;;;5050333;28;20036;-39
2023/01/15 14:08:25;;;;;;;5.65;1.27;;;;;;;;;;5061292;28;20079;-40
2023/01/15 14:10:54;;;;;;;3.28;0.77;;;;;;;;;;5061105;28;20033;-40
2023/01/15 14:13:23;;;;;;;5.70;0.90;;;;;;;;;;5064605;28;20024;-40
2023/01/15 14:15:52;;;;;;;1.48;0.43;;;;;;;;;;5064964;28;20048;-40
2023/01/15 14:18:33;;;;;;;4.80;0.93;;;;;;;;;;5058735;28;20029;-39
2023/01/15 14:21:11;;;;;;;7.85;1.15;;;;;;;;;;5054641;28;20019;-39
2023/01/15 14:23:44;;;;;;;5.60;0.88;;;;;;;;;;5062229;28;20048;-40
2023/01/15 14:26:09;;;;;;;;;;;;;;;;;;5065545;28;20033;-43
2023/01/15 14:28:38;;;;;;;1.73;0.50;;;;;;;;;;5058473;28;19931;-40
2023/01/15 14:31:07;;;;;;;1.40;0.63;;;;;;;;;;5060891;28;20028;-41
2023/01/15 14:33:36;;;;;;;3.35;0.85;;;;;;;;;;5065066;28;20444;-41
2023/01/15 14:36:17;;;;;;;0.80;0.40;;;;;;;;;;5064591;28;20432;-40
2023/01/15 14:39:02;;;;;;;1.90;0.60;;;;;;;;;;5056695;28;20052;-40
2023/01/15 14:41:30;;;;;;;4.47;0.82;;;;;;;;;;5050135;28;20086;-41
2023/01/15 14:43:57;;;;;;;2.95;0.57;;;;;;;;;;5051813;28;20071;-42
2023/01/15 14:46:23;;;;;;;0.90;0.40;;;;;;;;;;5041537;28;20064;-40
2023/01/15 14:48:49;;;;;;;6.57;0.93;;;;;;;;;;5052589;28;20053;-40
2023/01/15 14:51:18;;;;;;;2.60;0.47;;;;;;;;;;5053016;28;20032;-40
2023/01/15 14:54:13;;;;;;;2.00;0.60;;;;;;;;;;5044076;28;20428;-39
2023/01/15 14:56:49;;;;;;;11.43;0.88;;;;;;;;;;5028528;28;20389;-40
2023/01/15 14:59:21;;;;;;;3.83;1.00;;;;;;;;;;5051951;28;20374;-39
2023/01/15 15:01:48;;;;;;;5.65;0.73;;;;;;;;;;5053604;28;20497;-40
2023/01/15 15:04:35;;;;;;;2.42;0.70;;;;;;;;;;5052678;28;20064;-39
2023/01/15 15:07:07;;;;;;;3.42;1.30;;;;;;;;;;5053315;28;20044;-38
2023/01/15 15:09:33;;;;;;;4.38;1.48;;;;;;;;;;5052829;28;20501;-38
2023/01/15 15:12:18;;;;;;;4.88;0.98;;;;;;;;;;5053785;28;20033;-38
2023/01/15 15:14:45;;;;;;;3.72;0.70;;;;;;;;;;5046288;28;20102;-39
2023/01/15 15:17:20;;;;;;;7.60;1.63;;;;;;;;;;5052426;28;20033;-38
2023/01/15 15:19:48;;;;;;;2.28;0.70;;;;;;;;;;5052963;28;20393;-39
2023/01/15 15:22:16;;;;;;;2.47;0.90;;;;;;;;;;5054951;28;20017;-39
2023/01/15 15:24:46;;;;;;;2.60;0.50;;;;;;;;;;5051947;28;20036;-38
2023/01/15 15:27:20;;;;;;;4.70;0.90;;;;;;;;;;5051492;28;20497;-39
2023/01/15 15:29:46;;;;;;;2.25;0.52;;;;;;;;;;5051253;28;20029;-38
2023/01/15 15:32:15;;;;;;;4.03;0.65;;;;;;;;;;5052034;28;20052;-39
2023/01/15 15:34:45;;;;;;;4.40;0.73;;;;;;;;;;5044215;28;20045;-38
2023/01/15 15:37:17;;;;;;;1.85;0.60;;;;;;;;;;5051759;28;20033;-38
2023/01/15 15:39:43;;;;;;;3.65;1.02;;;;;;;;;;5052496;28;20033;-38
2023/01/15 15:50:30;;;;;;;3.55;0.70;;;;;;;;;;5051355;28;20056;-38
2023/01/15 15:52:57;;;;;;;6.35;1.10;;;;;;;;;;5053510;28;20032;-38
2023/01/15 15:55:24;;;;;;;5.80;0.88;;;;;;;;;;5043544;28;20025;-38
2023/01/15 15:57:53;;;;;;;2.00;0.63;;;;;;;;;;5053264;28;20037;-38